Time;durP1;ratioP1;P1;durP2;ratioP2;P2;SDS_P1;SDS_P2;PMS_P1;PMS_P2;Temp;Humidity;BMP_temperature;BMP_pressure;BME280_temperature;BME280_humidity;BME280_pressure;Samples;Min_cycle;Max_cycle;Signal;HPM_P1;HPM_P2
2021/10/18 00:00:00;;;;;;;10.27;8.17;;;9.90;99.90;;;;;;5095919;28;20294;-65
2021/10/18 00:02:29;;;;;;;10.23;8.67;;;9.90;99.90;;;;;;5095554;28;20305;-66
2021/10/18 00:04:57;;;;;;;10.57;8.50;;;9.90;99.90;;;;;;5095780;28;20208;-65
2021/10/18 00:07:25;;;;;;;10.17;8.40;;;9.90;99.90;;;;;;5095696;28;20200;-65
2021/10/18 00:09:53;;;;;;;10.00;9.00;;;9.90;99.90;;;;;;5095443;28;20200;-66
2021/10/18 00:12:21;;;;;;;11.47;8.93;;;9.80;99.90;;;;;;5095500;28;20232;-65
2021/10/18 00:14:49;;;;;;;10.37;8.73;;;9.80;99.90;;;;;;5095700;28;20334;-66
2021/10/18 00:17:17;;;;;;;11.20;8.77;;;9.80;99.90;;;;;;5095366;28;20306;-65
2021/10/18 00:19:46;;;;;;;11.70;9.23;;;9.80;99.90;;;;;;5095514;28;20204;-65
2021/10/18 00:22:14;;;;;;;11.43;8.30;;;9.80;99.90;;;;;;5095414;28;20248;-65
2021/10/18 00:24:42;;;;;;;14.67;8.93;;;9.80;99.90;;;;;;5095346;28;20230;-65
2021/10/18 00:27:10;;;;;;;12.80;8.73;;;9.80;99.90;;;;;;5095227;28;20197;-64
2021/10/18 00:29:38;;;;;;;11.07;8.60;;;9.70;99.90;;;;;;5095185;28;20314;-66
2021/10/18 00:32:06;;;;;;;10.47;8.53;;;9.80;99.90;;;;;;5095295;28;20287;-65
2021/10/18 00:34:34;;;;;;;11.57;8.30;;;9.70;99.90;;;;;;5095332;28;20253;-65
2021/10/18 00:37:04;;;;;;;10.87;8.43;;;9.70;99.90;;;;;;5094890;28;20603;-66
2021/10/18 00:39:32;;;;;;;11.33;8.90;;;9.80;99.90;;;;;;5094942;28;20291;-65
2021/10/18 00:41:59;;;;;;;11.17;8.93;;;9.70;99.90;;;;;;5094970;28;20310;-65
2021/10/18 00:44:27;;;;;;;14.67;10.20;;;9.80;99.90;;;;;;5095006;28;20293;-65
2021/10/18 00:46:55;;;;;;;14.47;10.63;;;9.80;99.90;;;;;;5094193;28;20295;-65
2021/10/18 00:49:23;;;;;;;14.07;10.37;;;9.80;99.90;;;;;;5094804;28;20214;-66
2021/10/18 00:51:51;;;;;;;13.43;10.47;;;9.80;99.90;;;;;;5094826;28;20193;-67
2021/10/18 00:54:21;;;;;;;12.33;10.40;;;9.80;99.90;;;;;;5094344;28;20204;-66
2021/10/18 00:56:49;;;;;;;10.13;9.10;;;9.80;99.90;;;;;;5094713;28;20240;-65
2021/10/18 00:59:17;;;;;;;13.10;9.20;;;9.80;99.90;;;;;;5095459;28;20691;-66
2021/10/18 01:01:45;;;;;;;10.43;8.97;;;9.80;99.90;;;;;;5094442;28;20287;-65
2021/10/18 01:04:14;;;;;;;12.67;9.10;;;9.90;99.90;;;;;;5094634;28;20238;-66
2021/10/18 01:06:42;;;;;;;13.33;9.17;;;9.90;99.90;;;;;;5094556;28;20199;-67
2021/10/18 01:09:09;;;;;;;12.47;9.20;;;9.90;99.90;;;;;;5094382;28;20234;-65
2021/10/18 01:11:38;;;;;;;11.37;8.70;;;9.90;99.90;;;;;;5094135;28;20331;-66
2021/10/18 01:14:07;;;;;;;10.60;8.83;;;9.90;99.90;;;;;;5094177;28;20200;-65
2021/10/18 01:16:35;;;;;;;11.90;9.10;;;9.90;99.90;;;;;;5094133;28;20663;-65
2021/10/18 01:19:10;;;;;;;12.60;9.03;;;9.80;99.90;;;;;;5094435;28;20307;-65
2021/10/18 01:21:40;;;;;;;10.03;8.20;;;9.80;99.90;;;;;;5094339;28;20186;-65
2021/10/18 01:24:08;;;;;;;11.53;9.30;;;9.80;99.90;;;;;;5094090;28;20220;-66
2021/10/18 01:26:36;;;;;;;11.17;8.40;;;9.80;99.90;;;;;;5094050;28;20897;-65
2021/10/18 01:29:05;;;;;;;10.97;8.67;;;9.80;99.90;;;;;;5093716;28;20242;-65
2021/10/18 01:31:33;;;;;;;12.00;9.43;;;9.80;99.90;;;;;;5094544;28;20234;-65
2021/10/18 01:34:01;;;;;;;9.20;8.20;;;9.80;99.90;;;;;;5093958;28;20200;-65
2021/10/18 01:36:29;;;;;;;13.37;9.33;;;9.80;99.90;;;;;;5093954;28;20290;-65
2021/10/18 01:38:58;;;;;;;13.33;9.50;;;9.80;99.90;;;;;;5093940;28;20235;-65
2021/10/18 01:41:26;;;;;;;10.00;8.60;;;9.90;99.90;;;;;;5093993;28;20705;-67
2021/10/18 01:43:54;;;;;;;10.07;8.87;;;9.90;99.90;;;;;;5093601;28;20619;-64
2021/10/18 01:46:22;;;;;;;13.73;8.90;;;9.90;99.90;;;;;;5093915;28;20206;-65
2021/10/18 01:48:50;;;;;;;11.93;8.53;;;9.90;99.90;;;;;;5093633;28;20231;-65
2021/10/18 01:51:17;;;;;;;12.30;9.17;;;9.80;99.90;;;;;;5093648;28;20199;-65
2021/10/18 01:53:45;;;;;;;9.43;8.43;;;9.80;99.90;;;;;;5093372;28;20694;-66
2021/10/18 01:56:14;;;;;;;11.40;9.00;;;9.80;99.90;;;;;;5093096;28;20673;-66
2021/10/18 01:58:42;;;;;;;11.03;8.30;;;9.80;99.90;;;;;;5093363;28;20222;-65
2021/10/18 02:01:10;;;;;;;10.43;8.67;;;9.80;99.90;;;;;;5093302;28;20200;-65
2021/10/18 02:03:38;;;;;;;10.17;8.30;;;9.80;99.90;;;;;;5093486;28;20627;-65
2021/10/18 02:06:09;;;;;;;11.27;8.73;;;9.80;99.90;;;;;;5093292;28;20298;-65
2021/10/18 02:08:38;;;;;;;10.90;8.57;;;9.80;99.90;;;;;;5093494;28;20220;-65
2021/10/18 02:11:06;;;;;;;11.70;8.73;;;9.80;99.90;;;;;;5092935;28;20311;-66
2021/10/18 02:13:35;;;;;;;9.87;8.40;;;9.80;99.90;;;;;;5093257;28;20222;-65
2021/10/18 02:16:04;;;;;;;13.77;9.10;;;9.80;99.90;;;;;;5093214;28;20230;-65
2021/10/18 02:18:31;;;;;;;10.77;8.33;;;9.80;99.90;;;;;;5093379;28;20230;-65
2021/10/18 02:21:01;;;;;;;12.87;9.17;;;9.60;99.90;;;;;;5093132;28;20555;-65
2021/10/18 02:23:29;;;;;;;12.97;9.73;;;9.80;99.90;;;;;;5093074;28;20216;-65
2021/10/18 02:25:58;;;;;;;11.07;9.07;;;9.80;99.90;;;;;;5093016;28;20203;-66
2021/10/18 02:28:26;;;;;;;13.87;9.50;;;9.80;99.90;;;;;;5093073;28;20202;-65
2021/10/18 02:30:55;;;;;;;10.17;8.90;;;9.90;99.90;;;;;;5092963;28;20204;-65
2021/10/18 02:33:23;;;;;;;11.43;9.17;;;9.80;99.90;;;;;;5092860;28;20286;-65
2021/10/18 02:35:51;;;;;;;11.37;8.93;;;9.80;99.90;;;;;;5092920;28;20291;-65
2021/10/18 02:38:19;;;;;;;12.13;8.97;;;9.80;99.90;;;;;;5092701;28;20659;-65
2021/10/18 02:40:47;;;;;;;9.07;8.10;;;9.80;99.90;;;;;;5092831;28;20203;-66
2021/10/18 02:43:15;;;;;;;9.33;8.33;;;9.80;99.90;;;;;;5092601;28;20222;-65
2021/10/18 02:45:43;;;;;;;13.70;9.50;;;9.80;99.90;;;;;;5092564;28;20727;-65
2021/10/18 02:48:12;;;;;;;11.63;8.40;;;9.80;99.90;;;;;;5092823;28;20196;-66
2021/10/18 02:50:40;;;;;;;11.67;9.07;;;9.80;99.90;;;;;;5092921;28;20249;-66
2021/10/18 02:53:08;;;;;;;11.13;8.67;;;9.80;99.90;;;;;;5092820;28;20192;-65
2021/10/18 02:55:36;;;;;;;10.50;8.73;;;9.80;99.90;;;;;;5092740;28;20295;-65
2021/10/18 02:58:04;;;;;;;9.40;8.30;;;9.80;99.90;;;;;;5092837;28;20243;-64
2021/10/18 03:00:31;;;;;;;10.63;8.30;;;9.70;99.90;;;;;;5092828;28;20294;-64
2021/10/18 03:02:59;;;;;;;11.63;8.37;;;9.70;99.90;;;;;;5092786;28;20196;-65
2021/10/18 03:05:29;;;;;;;12.00;8.30;;;9.70;99.90;;;;;;5092861;28;20737;-65
2021/10/18 03:07:56;;;;;;;11.20;8.73;;;9.70;99.90;;;;;;5092884;28;20319;-64
2021/10/18 03:10:24;;;;;;;10.50;8.53;;;9.70;99.90;;;;;;5096294;28;20235;-65
2021/10/18 03:12:52;;;;;;;13.17;8.40;;;9.70;99.90;;;;;;5096675;28;20290;-65
2021/10/18 03:15:20;;;;;;;12.20;9.20;;;9.70;99.90;;;;;;5096886;28;20199;-65
2021/10/18 03:17:48;;;;;;;13.40;10.17;;;9.70;99.90;;;;;;5096455;28;20691;-66
2021/10/18 03:20:16;;;;;;;12.07;10.10;;;9.70;99.90;;;;;;5096674;28;20586;-65
2021/10/18 03:22:45;;;;;;;11.97;9.70;;;9.70;99.90;;;;;;5096431;28;20232;-65
2021/10/18 03:25:13;;;;;;;12.63;10.20;;;9.60;99.90;;;;;;5096340;28;20227;-65
2021/10/18 03:27:41;;;;;;;12.57;9.83;;;9.60;99.90;;;;;;5095912;28;20719;-65
2021/10/18 03:30:09;;;;;;;10.20;9.20;;;9.60;99.90;;;;;;5096630;28;20223;-65
2021/10/18 03:32:37;;;;;;;11.70;8.97;;;9.60;99.90;;;;;;5096476;28;20204;-66
2021/10/18 03:35:06;;;;;;;10.97;9.03;;;9.70;99.90;;;;;;5096629;28;20236;-65
2021/10/18 03:37:34;;;;;;;13.97;10.17;;;9.60;99.90;;;;;;5095890;28;20200;-65
2021/10/18 03:40:04;;;;;;;13.50;10.23;;;9.70;99.90;;;;;;5095957;28;20200;-65
2021/10/18 03:42:32;;;;;;;12.00;10.70;;;9.70;99.90;;;;;;5095941;28;20190;-65
2021/10/18 03:45:00;;;;;;;12.67;10.67;;;9.60;99.90;;;;;;5096027;28;20224;-65
2021/10/18 03:47:27;;;;;;;17.83;14.27;;;9.60;99.90;;;;;;5095982;28;20214;-66
2021/10/18 03:49:55;;;;;;;14.47;11.77;;;9.60;99.90;;;;;;5095846;28;20207;-65
2021/10/18 03:52:23;;;;;;;15.33;11.23;;;9.60;99.90;;;;;;5095545;28;20659;-66
2021/10/18 03:54:51;;;;;;;15.13;10.93;;;9.60;99.90;;;;;;5095798;28;20201;-65
2021/10/18 03:57:20;;;;;;;13.87;11.30;;;9.60;99.90;;;;;;5095696;28;20292;-65
2021/10/18 03:59:48;;;;;;;13.93;11.93;;;9.60;99.90;;;;;;5095839;28;20298;-66
2021/10/18 04:02:16;;;;;;;13.60;11.30;;;9.60;99.90;;;;;;5095394;28;20306;-65
2021/10/18 04:04:44;;;;;;;15.73;11.43;;;9.60;99.90;;;;;;5095649;28;20215;-65
2021/10/18 04:07:12;;;;;;;15.87;11.87;;;9.60;99.90;;;;;;5095651;28;20224;-65
2021/10/18 04:09:40;;;;;;;13.43;11.67;;;9.60;99.90;;;;;;5095581;28;20340;-64
2021/10/18 04:12:08;;;;;;;13.93;11.37;;;9.60;99.90;;;;;;5095226;28;20331;-64
2021/10/18 04:14:37;;;;;;;13.70;10.33;;;9.50;99.90;;;;;;5095576;28;20518;-65
2021/10/18 04:17:05;;;;;;;12.07;10.50;;;9.50;99.90;;;;;;5095595;28;20200;-66
2021/10/18 04:19:33;;;;;;;11.73;10.53;;;9.50;99.90;;;;;;5095015;28;20291;-64
2021/10/18 04:22:01;;;;;;;13.93;10.43;;;9.70;99.90;;;;;;5094740;28;20227;-65
2021/10/18 04:24:28;;;;;;;12.67;9.80;;;9.50;99.90;;;;;;5095252;28;20226;-66
2021/10/18 04:26:56;;;;;;;11.63;9.83;;;9.50;99.90;;;;;;5095388;28;20200;-65
2021/10/18 04:29:24;;;;;;;11.43;9.77;;;9.50;99.90;;;;;;5094889;28;20634;-66
2021/10/18 04:31:58;;;;;;;14.60;10.10;;;9.50;99.90;;;;;;5095218;28;20612;-65
2021/10/18 04:34:26;;;;;;;12.23;10.23;;;9.40;99.90;;;;;;5095252;28;20176;-64
2021/10/18 04:36:54;;;;;;;12.23;9.40;;;9.40;99.90;;;;;;5094962;28;20622;-65
2021/10/18 04:39:21;;;;;;;14.73;10.27;;;9.30;99.90;;;;;;5094899;28;20290;-65
2021/10/18 04:41:50;;;;;;;13.47;10.30;;;9.30;99.90;;;;;;5095135;28;20206;-65
2021/10/18 04:44:18;;;;;;;11.27;9.47;;;9.30;99.90;;;;;;5094699;28;20311;-65
2021/10/18 04:46:46;;;;;;;12.63;9.07;;;9.30;99.90;;;;;;5095012;28;20295;-65
2021/10/18 04:49:15;;;;;;;10.33;9.00;;;9.20;99.90;;;;;;5094580;28;20644;-66
2021/10/18 04:51:43;;;;;;;13.70;10.27;;;9.20;99.90;;;;;;5094701;28;20222;-65
2021/10/18 04:54:10;;;;;;;12.00;8.97;;;9.20;99.90;;;;;;5094597;28;20224;-65
2021/10/18 04:56:38;;;;;;;11.07;9.40;;;9.20;99.90;;;;;;5094810;28;20200;-65
2021/10/18 04:59:06;;;;;;;11.33;9.53;;;9.20;99.90;;;;;;5094518;28;20202;-66
2021/10/18 05:01:34;;;;;;;11.03;9.30;;;9.20;99.90;;;;;;5094418;28;20699;-65
2021/10/18 05:04:02;;;;;;;12.63;9.90;;;9.20;99.90;;;;;;5094553;28;20210;-66
2021/10/18 05:06:31;;;;;;;10.47;9.30;;;9.30;99.90;;;;;;5094460;28;20204;-65
2021/10/18 05:08:59;;;;;;;11.10;8.97;;;9.30;99.90;;;;;;5094549;28;20203;-65
2021/10/18 05:11:27;;;;;;;11.03;8.87;;;9.30;99.90;;;;;;5093868;28;20331;-66
2021/10/18 05:13:55;;;;;;;12.70;8.67;;;9.30;99.90;;;;;;5093969;28;20206;-64
2021/10/18 05:16:23;;;;;;;9.87;8.30;;;9.30;99.90;;;;;;5093969;28;20200;-65
2021/10/18 05:18:51;;;;;;;12.53;8.77;;;9.30;99.90;;;;;;5094266;28;20200;-66
2021/10/18 05:21:19;;;;;;;10.00;8.27;;;9.20;99.90;;;;;;5094041;28;20196;-66
2021/10/18 05:23:48;;;;;;;10.07;8.17;;;9.20;99.90;;;;;;5093996;28;20199;-65
2021/10/18 05:26:16;;;;;;;9.53;8.00;;;9.20;99.90;;;;;;5093765;28;20584;-66
2021/10/18 05:28:44;;;;;;;9.83;8.40;;;9.20;99.90;;;;;;5093811;28;20567;-66
2021/10/18 05:31:12;;;;;;;9.60;7.83;;;9.20;99.90;;;;;;5093853;28;20226;-66
2021/10/18 05:33:40;;;;;;;11.40;8.47;;;9.30;99.90;;;;;;5093703;28;20227;-64
2021/10/18 05:36:08;;;;;;;8.20;7.20;;;9.30;99.90;;;;;;5094046;28;20196;-66
2021/10/18 05:38:36;;;;;;;12.30;8.70;;;9.30;99.90;;;;;;5093642;28;20243;-66
2021/10/18 05:41:05;;;;;;;13.07;9.07;;;9.40;99.90;;;;;;5093891;28;20204;-65
2021/10/18 05:43:33;;;;;;;10.43;8.50;;;9.40;99.90;;;;;;5093489;28;20742;-66
2021/10/18 05:46:00;;;;;;;11.33;8.37;;;9.30;99.90;;;;;;5093580;28;20239;-67
2021/10/18 05:48:28;;;;;;;11.67;8.20;;;9.30;99.90;;;;;;5093561;28;20561;-65
2021/10/18 05:50:56;;;;;;;12.00;8.20;;;9.30;99.90;;;;;;5093410;28;20231;-65
2021/10/18 05:53:28;;;;;;;8.70;7.73;;;9.20;99.90;;;;;;5093359;28;20654;-66
2021/10/18 05:55:56;;;;;;;8.27;7.47;;;9.20;99.90;;;;;;5093358;28;20196;-66
2021/10/18 05:58:25;;;;;;;11.90;8.20;;;9.30;99.90;;;;;;5093424;28;20232;-66
2021/10/18 06:00:53;;;;;;;13.30;7.67;;;9.40;99.90;;;;;;5093599;28;20206;-66
2021/10/18 06:03:21;;;;;;;9.50;7.30;;;9.20;99.90;;;;;;5093494;28;20222;-65
2021/10/18 06:05:52;;;;;;;9.03;7.37;;;9.30;99.90;;;;;;5093454;28;20226;-64
2021/10/18 06:08:40;;;;;;;8.47;7.37;;;9.30;99.90;;;;;;5093206;28;20567;-66
2021/10/18 06:11:08;;;;;;;7.90;6.60;;;9.40;99.90;;;;;;5092994;28;20825;-65
2021/10/18 06:13:37;;;;;;;8.53;6.90;;;9.40;99.90;;;;;;5093047;28;20287;-64
2021/10/18 06:16:05;;;;;;;11.33;7.70;;;9.30;99.90;;;;;;5093133;28;20223;-66
2021/10/18 06:18:33;;;;;;;11.63;7.70;;;9.30;99.90;;;;;;5094536;28;20242;-65
2021/10/18 06:21:01;;;;;;;7.57;6.83;;;9.30;99.90;;;;;;5093403;28;20231;-65
2021/10/18 06:23:29;;;;;;;10.70;8.07;;;9.30;99.90;;;;;;5093286;28;20204;-65
2021/10/18 06:25:56;;;;;;;9.27;7.70;;;9.20;99.90;;;;;;5093044;28;20220;-65
2021/10/18 06:28:25;;;;;;;11.43;8.40;;;9.20;99.90;;;;;;5092757;28;20246;-65
2021/10/18 06:30:55;;;;;;;9.53;8.03;;;9.10;99.90;;;;;;5093061;28;20196;-64
2021/10/18 06:33:24;;;;;;;12.40;7.93;;;9.00;99.90;;;;;;5092483;28;20612;-65
2021/10/18 06:35:52;;;;;;;11.70;8.93;;;9.00;99.90;;;;;;5092448;28;20212;-64
2021/10/18 06:38:22;;;;;;;10.70;8.30;;;9.00;99.90;;;;;;5092691;28;20558;-65
2021/10/18 06:40:56;;;;;;;10.57;8.77;;;8.90;99.90;;;;;;5092703;28;20604;-65
2021/10/18 06:43:24;;;;;;;13.37;8.70;;;8.80;99.90;;;;;;5091609;28;20239;-65
2021/10/18 06:45:51;;;;;;;10.70;8.60;;;8.80;99.90;;;;;;5092779;28;20299;-65
2021/10/18 06:48:21;;;;;;;9.73;8.43;;;8.80;99.90;;;;;;5092334;28;20659;-65
2021/10/18 06:50:50;;;;;;;12.87;9.33;;;8.90;99.90;;;;;;5092366;28;20655;-65
2021/10/18 06:53:20;;;;;;;11.77;8.97;;;8.90;99.90;;;;;;5092460;28;20629;-65
2021/10/18 06:55:47;;;;;;;11.27;8.30;;;9.00;99.90;;;;;;5092706;28;20211;-64
2021/10/18 06:58:15;;;;;;;10.60;8.57;;;9.10;99.90;;;;;;5092458;28;20590;-64
2021/10/18 07:00:43;;;;;;;33.63;26.23;;;9.30;99.90;;;;;;5092250;28;20243;-64
2021/10/18 07:03:11;;;;;;;12.53;9.90;;;9.40;99.90;;;;;;5092490;28;20210;-64
2021/10/18 07:05:41;;;;;;;12.50;9.40;;;9.60;99.90;;;;;;5092550;28;20353;-64
2021/10/18 07:08:08;;;;;;;10.60;8.60;;;9.70;99.90;;;;;;5092588;28;20299;-65
2021/10/18 07:10:36;;;;;;;10.27;8.23;;;9.70;99.90;;;;;;5092169;28;20323;-65
2021/10/18 07:13:09;;;;;;;12.03;9.03;;;9.80;99.90;;;;;;5092221;28;20211;-65
2021/10/18 07:15:37;;;;;;;12.70;8.90;;;9.90;99.90;;;;;;5092005;28;20193;-65
2021/10/18 07:18:05;;;;;;;11.20;7.57;;;10.10;99.90;;;;;;5092310;28;20574;-65
2021/10/18 07:20:33;;;;;;;13.07;8.30;;;10.10;99.90;;;;;;5092063;28;20295;-65
2021/10/18 07:23:06;;;;;;;10.93;8.67;;;10.20;99.90;;;;;;5091981;28;20219;-65
2021/10/18 07:25:35;;;;;;;9.97;8.07;;;10.30;99.90;;;;;;5092038;28;20214;-64
2021/10/18 07:28:04;;;;;;;11.97;7.77;;;10.40;99.90;;;;;;5092239;28;20226;-64
2021/10/18 07:30:33;;;;;;;8.33;7.33;;;10.50;99.90;;;;;;5092356;28;20196;-63
2021/10/18 07:33:01;;;;;;;11.47;8.13;;;10.60;99.90;;;;;;5092270;28;20208;-64
2021/10/18 07:35:31;;;;;;;12.07;7.73;;;10.70;99.90;;;;;;5092264;28;20204;-65
2021/10/18 07:38:00;;;;;;;11.23;8.37;;;10.70;99.90;;;;;;5092043;28;20275;-63
2021/10/18 07:40:29;;;;;;;10.27;7.00;;;10.80;99.90;;;;;;5091760;28;20212;-64
2021/10/18 07:43:00;;;;;;;8.03;7.23;;;10.90;99.90;;;;;;5091525;28;20210;-65
2021/10/18 07:45:29;;;;;;;9.80;7.80;;;11.00;99.90;;;;;;5091904;28;20188;-63
2021/10/18 07:47:57;;;;;;;9.80;7.27;;;11.10;99.90;;;;;;5091334;28;20642;-63
2021/10/18 07:50:25;;;;;;;12.03;7.57;;;11.10;99.90;;;;;;5091707;28;20292;-65
2021/10/18 07:52:53;;;;;;;8.43;6.80;;;11.20;99.90;;;;;;5091741;28;20200;-64
2021/10/18 07:55:21;;;;;;;29.70;22.10;;;11.30;99.90;;;;;;5093422;28;20253;-64
2021/10/18 07:57:52;;;;;;;11.47;9.27;;;11.30;99.90;;;;;;5094746;28;20287;-65
2021/10/18 08:00:21;;;;;;;11.30;6.80;;;11.40;99.90;;;;;;5095091;28;20626;-65
2021/10/18 08:02:49;;;;;;;9.73;7.30;;;11.40;99.90;;;;;;5094911;28;20210;-65
2021/10/18 08:05:17;;;;;;;8.43;7.33;;;11.50;99.90;;;;;;5094744;28;20208;-64
2021/10/18 08:07:48;;;;;;;10.23;7.27;;;11.50;99.90;;;;;;5094894;28;20332;-64
2021/10/18 08:10:23;;;;;;;9.80;6.37;;;11.60;99.90;;;;;;5094407;28;20236;-65
2021/10/18 08:12:53;;;;;;;9.23;6.50;;;11.70;99.90;;;;;;5094780;28;20249;-64
2021/10/18 08:15:22;;;;;;;8.17;7.07;;;11.70;99.90;;;;;;5094536;28;20204;-64
2021/10/18 08:17:50;;;;;;;7.87;7.07;;;11.70;99.90;;;;;;5095015;28;20232;-65
2021/10/18 08:20:18;;;;;;;8.27;6.43;;;11.80;99.90;;;;;;5094704;28;20234;-66
2021/10/18 08:22:47;;;;;;;8.73;6.63;;;11.80;99.90;;;;;;5094399;28;20295;-64
2021/10/18 08:25:15;;;;;;;7.37;6.67;;;11.80;99.90;;;;;;5094721;28;20210;-63
2021/10/18 08:27:43;;;;;;;10.97;7.20;;;11.90;99.90;;;;;;5094493;28;20212;-64
2021/10/18 08:30:12;;;;;;;9.93;6.40;;;11.90;99.90;;;;;;5094699;28;20230;-64
2021/10/18 08:32:40;;;;;;;7.20;5.83;;;12.00;99.90;;;;;;5094501;28;20228;-64
2021/10/18 08:35:11;;;;;;;8.73;6.80;;;12.10;99.90;;;;;;5094541;28;20210;-65
2021/10/18 08:40:27;;;;;;;9.03;6.23;;;12.40;99.90;;;;;;5094356;28;20218;-64
2021/10/18 08:42:59;;;;;;;8.37;6.07;;;12.40;99.90;;;;;;5094289;28;20192;-64
2021/10/18 08:45:28;;;;;;;7.53;6.13;;;12.50;99.90;;;;;;5094240;28;20188;-65
2021/10/18 08:47:56;;;;;;;9.40;6.13;;;12.60;99.90;;;;;;5094256;28;20223;-64
2021/10/18 08:50:25;;;;;;;8.60;6.18;;;12.60;99.90;;;;;;5093563;28;20556;-64
2021/10/18 08:52:53;;;;;;;8.70;6.20;;;12.70;99.90;;;;;;5093923;28;20200;-65
2021/10/18 08:55:21;;;;;;;8.57;5.93;;;12.80;99.90;;;;;;5093647;28;20200;-64
2021/10/18 08:57:49;;;;;;;7.82;6.43;;;12.90;99.90;;;;;;5093965;28;20194;-64
2021/10/18 09:00:46;;;;;;;8.07;6.23;;;12.90;99.90;;;;;;5093989;28;20319;-65
2021/10/18 09:03:16;;;;;;;7.07;5.93;;;13.00;99.90;;;;;;5086921;28;20575;-64
2021/10/18 09:05:44;;;;;;;8.65;5.97;;;13.10;99.90;;;;;;5093846;28;20219;-64
2021/10/18 09:08:33;;;;;;;8.32;6.10;;;13.00;99.90;;;;;;5091856;28;20247;-65
2021/10/18 09:11:03;;;;;;;7.82;6.20;;;13.00;99.90;;;;;;5093007;28;20240;-65
2021/10/18 09:13:31;;;;;;;9.90;6.30;;;13.20;99.90;;;;;;5093110;28;20676;-65
2021/10/18 09:16:01;;;;;;;7.15;5.72;;;13.00;99.90;;;;;;5093153;28;20196;-65
2021/10/18 09:18:29;;;;;;;7.60;6.05;;;13.20;99.90;;;;;;5093341;28;20206;-65
2021/10/18 09:20:57;;;;;;;7.63;5.00;;;13.30;99.90;;;;;;5093144;28;20781;-65
2021/10/18 09:23:28;;;;;;;6.85;5.45;;;13.30;99.90;;;;;;5093261;28;20287;-63
2021/10/18 09:25:59;;;;;;;8.00;5.13;;;13.30;99.90;;;;;;5093038;28;20220;-63
2021/10/18 09:28:28;;;;;;;8.52;4.90;;;13.50;99.90;;;;;;5093055;28;20222;-65
2021/10/18 09:30:57;;;;;;;8.05;5.70;;;13.60;99.90;;;;;;5093302;28;20223;-64
2021/10/18 09:33:31;;;;;;;8.05;4.50;;;13.70;99.90;;;;;;5093315;28;20288;-65
2021/10/18 09:36:00;;;;;;;6.53;4.65;;;13.80;99.90;;;;;;5092978;28;20279;-65
2021/10/18 09:38:29;;;;;;;8.07;5.30;;;13.90;99.90;;;;;;5092796;28;20299;-65
2021/10/18 09:40:59;;;;;;;7.80;5.15;;;13.90;99.90;;;;;;5093050;28;20260;-65
2021/10/18 09:43:37;;;;;;;7.82;5.00;;;14.00;99.90;;;;;;5092985;28;20242;-64
2021/10/18 09:46:11;;;;;;;8.00;5.55;;;14.00;99.90;;;;;;5093045;28;20224;-64
2021/10/18 10:53:47;;;;;;;6.25;4.40;;;15.50;99.90;;;;;;5071943;28;20204;-65
2021/10/18 10:56:28;;;;;;;6.10;4.53;;;15.30;99.90;;;;;;5071947;28;20236;-64
2021/10/18 10:59:12;;;;;;;5.30;4.22;;;15.30;99.90;;;;;;5071628;28;20268;-64
2021/10/18 11:01:56;;;;;;;5.97;4.40;;;15.10;99.90;;;;;;5071566;28;20191;-65
2021/10/18 11:04:47;;;;;;;7.00;4.60;;;15.10;99.90;;;;;;5071955;28;20247;-64
2021/10/18 11:07:21;;;;;;;6.07;4.05;;;15.10;99.90;;;;;;5090665;28;20302;-63
2021/10/18 11:09:51;;;;;;;6.97;4.25;;;15.10;99.90;;;;;;5091295;28;20540;-65
2021/10/18 11:12:29;;;;;;;8.82;4.40;;;15.10;99.90;;;;;;5091317;28;20235;-65
2021/10/18 11:15:00;;;;;;;6.82;4.15;;;15.00;99.90;;;;;;5091640;28;20192;-63
2021/10/18 11:17:30;;;;;;;5.18;4.55;;;15.20;99.90;;;;;;5091663;28;20273;-65
2021/10/18 11:20:00;;;;;;;5.53;4.55;;;15.30;99.90;;;;;;5091723;28;20253;-65
2021/10/18 11:22:31;;;;;;;7.70;4.70;;;15.40;99.90;;;;;;5091490;28;20246;-64
2021/10/18 11:24:59;;;;;;;5.45;4.30;;;15.90;99.90;;;;;;5091490;28;20216;-64
2021/10/18 11:27:32;;;;;;;6.28;4.80;;;15.90;99.90;;;;;;5091488;28;20231;-64
2021/10/18 11:30:02;;;;;;;5.65;4.82;;;15.80;99.90;;;;;;5093068;28;20211;-65
2021/10/18 11:32:31;;;;;;;5.88;5.07;;;15.70;99.90;;;;;;5095179;28;20619;-65
2021/10/18 11:35:07;;;;;;;6.10;5.22;;;15.60;99.90;;;;;;5095180;28;20300;-65
2021/10/18 11:37:54;;;;;;;8.23;5.40;;;15.50;99.90;;;;;;5095252;28;20727;-64
2021/10/18 11:40:27;;;;;;;7.28;5.90;;;15.40;99.90;;;;;;5095348;28;20238;-65
2021/10/18 11:42:58;;;;;;;8.65;5.53;;;15.30;99.90;;;;;;5095263;28;20181;-65
2021/10/18 11:45:29;;;;;;;7.38;6.05;;;15.30;99.90;;;;;;5095273;28;20191;-64
2021/10/18 11:48:04;;;;;;;7.15;5.45;;;15.30;99.90;;;;;;5095186;28;20208;-64
2021/10/18 11:50:36;;;;;;;6.68;5.45;;;15.20;99.90;;;;;;5095393;28;20282;-64
2021/10/18 11:53:11;;;;;;;7.47;5.78;;;15.30;99.90;;;;;;5094788;28;20636;-65
2021/10/18 11:55:42;;;;;;;6.43;4.72;;;15.30;99.90;;;;;;5094609;28;20792;-65
2021/10/18 11:58:11;;;;;;;7.88;5.32;;;15.20;99.90;;;;;;5094868;28;20267;-64
2021/10/18 12:00:43;;;;;;;7.18;4.63;;;15.20;99.90;;;;;;5095021;28;20288;-65
2021/10/18 12:03:13;;;;;;;5.97;4.35;;;15.30;99.90;;;;;;5094708;28;20192;-65
2021/10/18 12:05:43;;;;;;;7.20;4.30;;;15.30;99.90;;;;;;5094697;28;20632;-65
2021/10/18 12:08:13;;;;;;;4.90;4.40;;;15.40;99.90;;;;;;5094867;28;20261;-65
2021/10/18 12:10:42;;;;;;;5.07;4.57;;;15.40;99.90;;;;;;5094177;28;20324;-66
2021/10/18 12:13:15;;;;;;;6.10;4.80;;;15.50;99.90;;;;;;5094348;28;20200;-65
2021/10/18 12:15:51;;;;;;;6.57;4.38;;;15.50;99.90;;;;;;5094843;28;20238;-65
2021/10/18 12:18:21;;;;;;;8.05;4.80;;;15.50;99.90;;;;;;5094369;28;20227;-65
2021/10/18 12:20:51;;;;;;;8.95;4.82;;;15.50;99.90;;;;;;5094650;28;20227;-65
2021/10/18 12:23:24;;;;;;;5.10;4.60;;;15.40;99.90;;;;;;5094766;28;20218;-65
2021/10/18 12:25:58;;;;;;;7.22;4.90;;;15.40;99.90;;;;;;5094566;28;20185;-64
2021/10/18 12:28:40;;;;;;;5.28;4.78;;;15.40;99.90;;;;;;5094009;28;20639;-65
2021/10/18 12:31:23;;;;;;;10.15;5.65;;;15.40;99.90;;;;;;5094153;28;20224;-65
2021/10/18 12:34:01;;;;;;;7.72;5.15;;;15.50;99.90;;;;;;5094573;28;20695;-65
2021/10/18 12:36:29;;;;;;;7.32;5.75;;;15.60;99.90;;;;;;5094395;28;20267;-65
2021/10/18 12:39:00;;;;;;;6.65;5.40;;;15.50;99.90;;;;;;5094172;28;20214;-64
2021/10/18 12:41:27;;;;;;;6.80;5.13;;;15.50;99.90;;;;;;5093230;28;20279;-66
2021/10/18 12:43:57;;;;;;;9.05;6.40;;;15.40;99.90;;;;;;5093839;28;20287;-65
2021/10/18 12:46:27;;;;;;;6.45;5.78;;;15.50;99.90;;;;;;5094291;28;20227;-65
2021/10/18 12:48:57;;;;;;;7.18;6.00;;;15.40;99.90;;;;;;5093756;28;20208;-65
2021/10/18 12:51:32;;;;;;;5.90;5.28;;;15.40;99.90;;;;;;5094324;28;20592;-65
2021/10/18 12:54:22;;;;;;;6.15;4.40;;;15.40;99.90;;;;;;5093812;28;20200;-64
2021/10/18 12:57:08;;;;;;;5.85;4.38;;;15.50;99.90;;;;;;5093599;28;20237;-65
2021/10/18 12:59:39;;;;;;;5.25;3.72;;;15.40;99.90;;;;;;5093951;28;20271;-65
2021/10/18 13:02:24;;;;;;;5.22;4.18;;;15.50;99.90;;;;;;5093579;28;20636;-65
2021/10/18 13:05:14;;;;;;;4.43;3.75;;;15.60;99.90;;;;;;5093288;28;20226;-64
2021/10/18 13:07:45;;;;;;;4.95;3.35;;;15.60;99.90;;;;;;5093899;28;20184;-65
2021/10/18 13:10:15;;;;;;;4.03;3.63;;;15.70;99.90;;;;;;5093705;28;20200;-65
2021/10/18 13:12:44;;;;;;;4.32;3.88;;;15.70;99.90;;;;;;5094046;28;20191;-65
2021/10/18 13:15:15;;;;;;;22.63;16.92;;;15.70;99.90;;;;;;5093608;28;20283;-64
2021/10/18 13:17:44;;;;;;;5.43;4.20;;;15.70;99.90;;;;;;5093555;28;20681;-65
2021/10/18 13:20:14;;;;;;;6.18;3.03;;;15.60;99.90;;;;;;5093855;28;20246;-65
2021/10/18 13:22:43;;;;;;;4.25;2.90;;;15.50;99.90;;;;;;5093809;28;20275;-65
2021/10/18 13:25:12;;;;;;;5.43;2.78;;;15.50;99.90;;;;;;5093487;28;20287;-65
2021/10/18 13:27:41;;;;;;;5.47;2.38;;;15.50;99.90;;;;;;5093755;28;20240;-64
2021/10/18 13:30:10;;;;;;;2.72;2.00;;;15.50;99.90;;;;;;5093536;28;20307;-65
2021/10/18 13:32:49;;;;;;;3.72;1.80;;;15.50;99.90;;;;;;5093404;28;20184;-65
2021/10/18 13:35:17;;;;;;;2.53;2.25;;;15.50;99.90;;;;;;5093260;28;20206;-64
2021/10/18 13:37:46;;;;;;;2.70;2.30;;;15.50;99.90;;;;;;5093537;28;20196;-65
2021/10/18 13:40:16;;;;;;;3.72;2.20;;;15.50;99.90;;;;;;5093444;28;20223;-65
2021/10/18 13:42:46;;;;;;;3.75;2.40;;;15.40;99.90;;;;;;5093174;28;20733;-65
2021/10/18 13:45:15;;;;;;;2.92;2.63;;;15.50;99.90;;;;;;5093344;28;20282;-64
2021/10/18 13:47:43;;;;;;;3.92;2.80;;;15.50;99.90;;;;;;5093005;28;20204;-65
2021/10/18 13:50:13;;;;;;;3.20;2.75;;;15.50;99.90;;;;;;5093024;28;20306;-65
2021/10/18 13:52:41;;;;;;;3.97;2.50;;;15.30;99.90;;;;;;5092642;28;20662;-66
2021/10/18 13:55:11;;;;;;;2.50;2.30;;;15.40;99.90;;;;;;5092818;28;20246;-65
2021/10/18 13:57:39;;;;;;;3.90;2.70;;;15.30;99.90;;;;;;5092764;28;20292;-66
2021/10/18 14:00:09;;;;;;;4.00;2.60;;;15.20;99.90;;;;;;5092780;28;20227;-65
2021/10/18 14:02:38;;;;;;;5.05;2.42;;;15.20;99.90;;;;;;5093127;28;20219;-65
2021/10/18 14:05:07;;;;;;;4.63;2.45;;;15.10;99.90;;;;;;5092839;28;20206;-65